createdAt,value
2022-09-27T00:01:19.272Z,100086.88
2022-09-27T00:03:47.857Z,100076.25
2022-09-27T00:06:17.924Z,100077.56
2022-09-27T00:08:46.484Z,100062.94
2022-09-27T00:11:24.146Z,100058.53
2022-09-27T00:13:52.705Z,100055.44
2022-09-27T00:16:21.365Z,100064.50
2022-09-27T00:18:50.256Z,100059.47
2022-09-27T00:21:18.962Z,100069.97
2022-09-27T00:23:47.694Z,100060.44
2022-09-27T00:26:16.334Z,100050.69
2022-09-27T00:28:46.332Z,100057.63
2022-09-27T00:31:23.116Z,100050.97
2022-09-27T00:33:53.479Z,100046.13
2022-09-27T00:36:23.506Z,100042.88
2022-09-27T00:38:52.234Z,100043.69
2022-09-27T00:41:23.285Z,100029.97
2022-09-27T00:43:55.394Z,100034.47
2022-09-27T00:46:29.652Z,100032.22
2022-09-27T00:49:10.100Z,100029.09
2022-09-27T00:51:41.208Z,100028.31
2022-09-27T00:54:14.535Z,100025.16
2022-09-27T00:56:45.344Z,100038.84
2022-09-27T00:59:21.314Z,100023.66
2022-09-27T01:01:51.368Z,100020.31
2022-09-27T01:04:24.362Z,100026.16
2022-09-27T01:06:53.384Z,100024.38
2022-09-27T01:09:23.034Z,100024.31
2022-09-27T01:11:59.392Z,100021.91
2022-09-27T01:14:42.755Z,100028.97
2022-09-27T01:17:26.294Z,100027.94
2022-09-27T01:20:20.234Z,100020.94
2022-09-27T01:23:05.604Z,100020.63
2022-09-27T01:25:57.755Z,100015.72
2022-09-27T01:28:40.444Z,100016.56
2022-09-27T01:31:18.704Z,100013.94
2022-09-27T01:33:57.326Z,99999.94
2022-09-27T01:36:33.771Z,99999.94
2022-09-27T01:39:18.792Z,99996.69
2022-09-27T01:41:52.969Z,99993.88
2022-09-27T01:44:37.861Z,99978.97
2022-09-27T01:47:15.430Z,99991.91
2022-09-27T01:49:51.530Z,99989.28
2022-09-27T01:52:25.799Z,99993.47
2022-09-27T01:54:58.989Z,99990.03
2022-09-27T01:57:34.349Z,99974.56
2022-09-27T02:00:08.983Z,99972.91
2022-09-27T02:02:46.013Z,99962.34
2022-09-27T02:05:18.299Z,99969.34
2022-09-27T02:07:52.369Z,99967.75
2022-09-27T02:10:26.339Z,99976.44
2022-09-27T02:13:03.250Z,99963.50
2022-09-27T02:15:44.572Z,99964.31
2022-09-27T02:18:21.279Z,99968.72
2022-09-27T02:20:56.029Z,99972.06
2022-09-27T02:23:31.649Z,99974.78
2022-09-27T02:26:04.166Z,99966.00
2022-09-27T02:28:37.532Z,99953.88
2022-09-27T02:31:06.660Z,99959.41
2022-09-27T02:33:43.442Z,99957.44
2022-09-27T02:36:12.719Z,99947.19
2022-09-27T02:38:41.899Z,99962.75
2022-09-27T02:41:16.493Z,99941.13
2022-09-27T02:43:46.849Z,99952.22
2022-09-27T02:46:39.910Z,99940.31
2022-09-27T02:49:26.510Z,99936.09
2022-09-27T02:52:02.331Z,99942.16
2022-09-27T02:54:37.519Z,99935.91
2022-09-27T02:57:19.029Z,99930.03
2022-09-27T02:59:55.972Z,99930.03
2022-09-27T03:02:34.390Z,99931.06
2022-09-27T03:05:08.300Z,99928.13
2022-09-27T03:07:38.789Z,99921.47
2022-09-27T03:10:08.328Z,99908.50
2022-09-27T03:12:37.079Z,99905.03
2022-09-27T03:15:07.049Z,99915.41
2022-09-27T03:17:35.559Z,99902.44
2022-09-27T03:20:06.039Z,99900.66
2022-09-27T03:22:34.619Z,99898.16
2022-09-27T03:25:03.169Z,99902.44
2022-09-27T03:27:31.639Z,99891.28
2022-09-27T03:30:00.208Z,99892.19
2022-09-27T03:32:28.969Z,99882.59
2022-09-27T03:34:57.439Z,99884.34
2022-09-27T03:37:29.709Z,99890.53
2022-09-27T03:39:58.243Z,99885.31
2022-09-27T03:42:26.810Z,99875.81
2022-09-27T03:44:55.429Z,99874.03
2022-09-27T03:47:24.189Z,99876.94
2022-09-27T03:49:52.805Z,99879.66
2022-09-27T03:52:21.360Z,99877.06
2022-09-27T03:54:51.319Z,99878.63
2022-09-27T03:57:19.799Z,99871.84
2022-09-27T03:59:48.349Z,99876.44
2022-09-27T04:02:16.903Z,99882.34
2022-09-27T04:04:45.421Z,99877.34
2022-09-27T04:07:14.169Z,99860.97
2022-09-27T04:09:44.956Z,99864.41
2022-09-27T04:12:15.222Z,99866.81
2022-09-27T04:14:43.679Z,99853.34
2022-09-27T04:17:12.310Z,99852.38
2022-09-27T04:19:40.870Z,99867.84
2022-09-27T04:22:09.504Z,99860.22
2022-09-27T04:24:37.952Z,99871.50
2022-09-27T04:27:06.599Z,99848.81
2022-09-27T04:29:36.560Z,99841.94
2022-09-27T04:32:05.139Z,99836.72
2022-09-27T04:34:50.979Z,99836.84
2022-09-27T04:37:19.449Z,99847.56
2022-09-27T04:39:50.660Z,99844.75
2022-09-27T04:42:20.089Z,99837.75
2022-09-27T04:44:50.029Z,99843.09
2022-09-27T04:47:21.370Z,99838.09
2022-09-27T04:49:50.003Z,99835.34
2022-09-27T04:52:18.549Z,99836.19
2022-09-27T04:54:47.149Z,99827.00
2022-09-27T04:57:15.679Z,99826.06
2022-09-27T04:59:44.539Z,99834.72
2022-09-27T05:02:14.603Z,99825.31
2022-09-27T05:04:43.115Z,99821.88
2022-09-27T05:07:11.739Z,99820.84
2022-09-27T05:09:40.271Z,99823.56
2022-09-27T05:12:09.069Z,99817.81
2022-09-27T05:14:37.553Z,99828.88
2022-09-27T05:17:08.074Z,99830.13
2022-09-27T05:19:39.729Z,99823.56
2022-09-27T05:22:08.630Z,99813.84
2022-09-27T05:24:38.520Z,99817.50
2022-09-27T05:27:08.390Z,99814.06
2022-09-27T05:29:37.409Z,99809.78
2022-09-27T05:32:06.521Z,99808.94
2022-09-27T05:34:35.129Z,99808.13
2022-09-27T05:37:05.292Z,99793.50
2022-09-27T05:39:33.859Z,99789.94
2022-09-27T05:42:04.964Z,99803.63
2022-09-27T05:44:33.520Z,99801.00
2022-09-27T05:47:04.530Z,99789.00
2022-09-27T05:49:33.109Z,99779.28
2022-09-27T05:52:01.859Z,99777.53
2022-09-27T05:54:32.050Z,99779.41
2022-09-27T05:57:00.891Z,99773.34
2022-09-27T05:59:30.012Z,99777.72
2022-09-27T06:01:58.540Z,99770.72
2022-09-27T06:04:27.139Z,99773.34
2022-09-27T06:06:59.357Z,99767.19
2022-09-27T06:09:28.439Z,99765.31
2022-09-27T06:11:59.470Z,99781.16
2022-09-27T06:14:28.039Z,99773.53
2022-09-27T06:16:56.622Z,99773.53
2022-09-27T06:19:25.239Z,99770.31
2022-09-27T06:21:57.384Z,99773.25
2022-09-27T06:24:25.970Z,99776.34
2022-09-27T06:26:54.479Z,99765.41
2022-09-27T06:29:24.739Z,99761.34
2022-09-27T06:31:53.369Z,99772.50
2022-09-27T06:34:21.859Z,99766.44
2022-09-27T06:36:51.735Z,99768.09
2022-09-27T06:39:20.409Z,99768.31
2022-09-27T06:41:53.739Z,99759.16
2022-09-27T06:44:23.879Z,99773.88
2022-09-27T06:46:53.130Z,99765.28
2022-09-27T06:49:22.921Z,99768.44
2022-09-27T06:51:51.799Z,99758.09
2022-09-27T06:54:20.879Z,99756.44
2022-09-27T06:56:49.679Z,99763.63
2022-09-27T06:59:35.230Z,99758.53
2022-09-27T07:02:05.606Z,99770.00
2022-09-27T07:04:34.479Z,99760.19
2022-09-27T07:07:03.061Z,99765.41
2022-09-27T07:09:31.579Z,99764.47
2022-09-27T07:12:00.391Z,99763.56
2022-09-27T07:14:28.920Z,99755.81
2022-09-27T07:16:57.430Z,99762.06
2022-09-27T07:19:27.380Z,99757.47
2022-09-27T07:21:55.959Z,99740.47
2022-09-27T07:24:24.601Z,99743.09
2022-09-27T07:26:53.078Z,99747.44
2022-09-27T07:29:21.600Z,99759.03
2022-09-27T07:31:50.052Z,99741.41
2022-09-27T07:34:19.589Z,99752.03
2022-09-27T07:36:49.598Z,99753.50
2022-09-27T07:39:18.138Z,99761.53
2022-09-27T07:41:46.970Z,99765.19
2022-09-27T07:44:16.839Z,99755.06
2022-09-27T07:46:45.429Z,99760.28
2022-09-27T07:49:14.151Z,99757.78
2022-09-27T07:51:42.809Z,99758.94
2022-09-27T07:54:12.699Z,99766.41
2022-09-27T07:56:41.210Z,99759.75
2022-09-27T07:59:09.759Z,99767.38
2022-09-27T08:01:38.455Z,99754.03
2022-09-27T08:04:07.099Z,99748.59
2022-09-27T08:06:35.681Z,99747.03
2022-09-27T08:09:07.574Z,99734.50
2022-09-27T08:11:37.689Z,99737.53
2022-09-27T08:14:06.608Z,99732.84
2022-09-27T08:16:35.993Z,99729.50
2022-09-27T08:19:04.610Z,99729.09
2022-09-27T08:21:33.599Z,99730.88
2022-09-27T08:24:02.533Z,99730.03
2022-09-27T08:26:31.092Z,99736.72
2022-09-27T08:29:01.490Z,99742.69
2022-09-27T08:31:30.102Z,99742.69
2022-09-27T08:33:58.699Z,99737.47
2022-09-27T08:36:27.289Z,99744.75
2022-09-27T08:38:59.332Z,99736.19
2022-09-27T08:41:39.149Z,99742.03
2022-09-27T08:44:21.660Z,99733.47
2022-09-27T08:46:59.299Z,99742.22
2022-09-27T08:49:35.089Z,99724.91
2022-09-27T08:52:06.089Z,99731.38
2022-09-27T08:54:37.056Z,99730.44
2022-09-27T08:57:08.250Z,99733.69
2022-09-27T08:59:42.610Z,99732.22
2022-09-27T09:02:19.437Z,99741.50
2022-09-27T09:04:50.309Z,99739.94
2022-09-27T09:07:33.640Z,99736.50
2022-09-27T09:10:07.129Z,99738.06
2022-09-27T09:12:48.989Z,99738.91
2022-09-27T09:15:33.574Z,99738.06
2022-09-27T09:18:23.909Z,99746.75
2022-09-27T09:21:08.909Z,99739.94
2022-09-27T09:24:00.209Z,99740.56
2022-09-27T09:26:35.521Z,99741.94
2022-09-27T09:29:18.569Z,99752.16
2022-09-27T09:31:59.232Z,99742.75
2022-09-27T09:34:33.621Z,99739.53
2022-09-27T09:37:06.098Z,99739.53
2022-09-27T09:39:41.129Z,99735.13
2022-09-27T09:42:14.999Z,99734.94
2022-09-27T09:44:54.409Z,99733.88
2022-09-27T09:47:33.110Z,99734.84
2022-09-27T09:50:04.900Z,99740.97
2022-09-27T09:52:41.959Z,99736.38
2022-09-27T09:55:19.569Z,99740.69
2022-09-27T09:58:02.410Z,99735.88
2022-09-27T10:00:31.079Z,99741.41
2022-09-27T10:03:05.429Z,99741.19
2022-09-27T10:05:34.590Z,99730.75
2022-09-27T10:08:06.229Z,99727.88
2022-09-27T10:10:35.535Z,99730.09
2022-09-27T10:13:05.871Z,99725.00
2022-09-27T10:15:35.440Z,99732.44
2022-09-27T10:18:05.732Z,99728.03
2022-09-27T10:20:38.390Z,99722.06
2022-09-27T10:23:14.810Z,99722.00
2022-09-27T10:25:53.822Z,99716.25
2022-09-27T10:28:37.800Z,99706.75
2022-09-27T10:31:08.379Z,99705.47
2022-09-27T10:33:41.423Z,99699.63
2022-09-27T10:36:25.929Z,99700.25
2022-09-27T10:38:55.519Z,99703.91
2022-09-27T10:41:33.341Z,99690.66
2022-09-27T10:44:21.809Z,99702.75
2022-09-27T10:46:53.462Z,99693.25
2022-09-27T10:49:26.631Z,99690.66
2022-09-27T10:51:57.079Z,99694.91
2022-09-27T10:54:29.050Z,99684.69
2022-09-27T10:57:05.599Z,99677.69
2022-09-27T10:59:38.519Z,99680.28
2022-09-27T11:02:17.769Z,99668.06
2022-09-27T11:05:05.235Z,99666.31
2022-09-27T11:07:33.859Z,99669.00
2022-09-27T11:10:04.010Z,99661.63
2022-09-27T11:12:35.773Z,99661.31
2022-09-27T11:15:07.751Z,99670.69
2022-09-27T11:17:43.972Z,99664.84
2022-09-27T11:20:35.101Z,99671.13
2022-09-27T11:23:26.390Z,99649.09
2022-09-27T11:26:07.939Z,99657.13
2022-09-27T11:28:47.399Z,99644.34
2022-09-27T11:31:27.543Z,99640.13
2022-09-27T11:34:17.999Z,99643.06
2022-09-27T11:37:02.889Z,99635.50
2022-09-27T11:39:41.920Z,99632.38
2022-09-27T11:42:34.838Z,99628.91
2022-09-27T11:48:24.720Z,99631.25
2022-09-27T11:51:09.001Z,99629.03
2022-09-27T11:54:00.851Z,99616.69
2022-09-27T11:56:42.469Z,99612.28
2022-09-27T11:59:33.799Z,99610.53
2022-09-27T12:02:14.229Z,99618.25
2022-09-27T12:04:56.319Z,99612.06
2022-09-27T12:07:35.389Z,99620.47
2022-09-27T12:10:11.489Z,99616.69
2022-09-27T12:12:48.230Z,99610.75
2022-09-27T12:15:27.797Z,99621.69
2022-09-27T12:18:14.839Z,99624.19
2022-09-27T12:20:48.799Z,99626.81
2022-09-27T12:23:23.079Z,99619.28
2022-09-27T12:25:57.940Z,99618.25
2022-09-27T12:28:44.039Z,99615.75
2022-09-27T12:31:34.533Z,99617.63
2022-09-27T12:34:17.407Z,99613.59
2022-09-27T12:36:53.501Z,99606.59
2022-09-27T12:39:30.029Z,99610.97
2022-09-27T12:42:09.291Z,99601.59
2022-09-27T12:44:41.599Z,99597.91
2022-09-27T12:47:21.852Z,99591.00
2022-09-27T12:50:04.011Z,99592.06
2022-09-27T12:52:43.119Z,99591.97
2022-09-27T12:55:55.151Z,99589.22
2022-09-27T12:58:56.861Z,99581.94
2022-09-27T13:01:58.318Z,99580.56
2022-09-27T13:04:45.762Z,99575.56
2022-09-27T13:07:27.736Z,99570.09
2022-09-27T13:10:25.081Z,99573.31
2022-09-27T13:12:57.860Z,99566.56
2022-09-27T13:15:36.965Z,99570.00
2022-09-27T13:18:08.810Z,99567.28
2022-09-27T13:20:52.169Z,99554.56
2022-09-27T13:24:00.841Z,99550.91
2022-09-27T13:26:50.719Z,99543.75
2022-09-27T13:29:37.849Z,99539.50
2022-09-27T13:32:20.998Z,99547.19
2022-09-27T13:34:52.789Z,99540.22
2022-09-27T13:37:37.936Z,99537.84
2022-09-27T13:40:24.456Z,99537.59
2022-09-27T13:43:27.792Z,99532.84
2022-09-27T13:45:59.126Z,99531.16
2022-09-27T13:48:35.089Z,99535.53
2022-09-27T13:51:10.130Z,99546.59
2022-09-27T13:53:41.440Z,99537.19
2022-09-27T13:56:50.929Z,99534.94
2022-09-27T13:59:25.909Z,99532.19
2022-09-27T14:01:57.931Z,99533.88
2022-09-27T14:04:35.629Z,99528.88
2022-09-27T14:07:07.159Z,99531.38
2022-09-27T14:09:39.970Z,99522.84
2022-09-27T14:12:16.630Z,99516.44
2022-09-27T14:14:45.809Z,99520.00
2022-09-27T14:17:17.629Z,99512.38
2022-09-27T14:19:54.451Z,99504.31
2022-09-27T14:22:26.039Z,99511.22
2022-09-27T14:24:59.149Z,99503.38
2022-09-27T14:27:31.460Z,99509.19
2022-09-27T14:30:05.359Z,99506.59
2022-09-27T14:32:49.269Z,99492.94
2022-09-27T14:35:38.459Z,99502.19
2022-09-27T14:38:33.260Z,99497.91
2022-09-27T14:41:01.387Z,99493.44
2022-09-27T14:43:32.279Z,99483.06
2022-09-27T14:46:03.090Z,99493.28
2022-09-27T14:48:33.669Z,99495.19
2022-09-27T14:51:13.259Z,99488.31
2022-09-27T14:53:44.730Z,99475.38
2022-09-27T14:56:18.379Z,99477.84
2022-09-27T14:58:48.392Z,99479.63
2022-09-27T15:01:19.031Z,99488.19
2022-09-27T15:03:50.457Z,99482.25
2022-09-27T15:06:21.600Z,99491.97
2022-09-27T15:08:52.165Z,99482.69
2022-09-27T15:11:22.271Z,99495.53
2022-09-27T15:13:59.910Z,99501.00
2022-09-27T15:16:30.508Z,99501.00
2022-09-27T15:19:19.779Z,99493.03
2022-09-27T15:21:54.409Z,99491.28
2022-09-27T15:24:41.170Z,99482.69
2022-09-27T15:27:19.320Z,99494.81
2022-09-27T15:29:51.579Z,99478.31
2022-09-27T15:32:23.919Z,99476.44
2022-09-27T15:34:56.899Z,99472.84
2022-09-27T15:37:37.749Z,99481.53
2022-09-27T15:40:52.444Z,99482.13
2022-09-27T15:43:23.249Z,99484.03
2022-09-27T15:45:56.069Z,99486.75
2022-09-27T15:48:29.499Z,99477.34
2022-09-27T15:50:58.190Z,99484.25
2022-09-27T15:53:46.269Z,99475.59
2022-09-27T15:56:16.780Z,99474.88
2022-09-27T15:58:49.800Z,99475.69
2022-09-27T16:01:21.624Z,99476.06
2022-09-27T16:03:51.692Z,99473.53
2022-09-27T16:06:20.471Z,99470.00
2022-09-27T16:08:53.059Z,99477.72
2022-09-27T16:11:24.280Z,99473.66
2022-09-27T16:13:55.122Z,99477.19
2022-09-27T16:16:24.393Z,99484.81
2022-09-27T16:18:54.091Z,99471.66
2022-09-27T16:21:43.109Z,99464.03
2022-09-27T16:24:33.239Z,99461.75
2022-09-27T16:27:04.210Z,99467.50
2022-09-27T16:29:35.791Z,99466.06
2022-09-27T16:32:04.489Z,99465.31
2022-09-27T16:34:36.578Z,99455.38
2022-09-27T16:37:08.139Z,99456.94
2022-09-27T16:39:39.909Z,99454.44
2022-09-27T16:42:10.601Z,99442.56
2022-09-27T16:44:42.359Z,99445.16
2022-09-27T16:47:10.979Z,99448.94
2022-09-27T16:49:56.588Z,99458.44
2022-09-27T16:52:32.579Z,99447.06
2022-09-27T16:55:03.132Z,99458.69
2022-09-27T16:57:33.950Z,99466.06
2022-09-27T17:00:06.579Z,99460.84
2022-09-27T17:02:39.799Z,99466.06
2022-09-27T17:05:11.641Z,99474.59
2022-09-27T17:07:42.537Z,99482.19
2022-09-27T17:10:21.869Z,99485.53
2022-09-27T17:12:52.535Z,99482.09
2022-09-27T17:15:23.759Z,99477.34
2022-09-27T17:17:57.419Z,99475.47
2022-09-27T17:20:25.953Z,99477.34
2022-09-27T17:22:58.840Z,99478.09
2022-09-27T17:25:29.433Z,99471.34
2022-09-27T17:27:58.849Z,99465.88
2022-09-27T17:30:30.012Z,99466.34
2022-09-27T17:33:01.690Z,99476.34
2022-09-27T17:35:32.701Z,99466.16
2022-09-27T17:38:08.109Z,99473.16
2022-09-27T17:40:38.857Z,99478.91
2022-09-27T17:43:10.409Z,99479.84
2022-09-27T17:45:38.899Z,99479.25
2022-09-27T17:48:29.480Z,99482.34
2022-09-27T17:51:00.773Z,99487.59
2022-09-27T17:53:32.978Z,99497.81
2022-09-27T17:56:05.689Z,99502.56
2022-09-27T17:58:35.849Z,99501.69
2022-09-27T18:01:10.500Z,99497.31
2022-09-27T18:03:43.500Z,99503.72
2022-09-27T18:06:14.619Z,99503.72
2022-09-27T18:08:46.590Z,99495.38
2022-09-27T18:11:18.932Z,99506.53
2022-09-27T18:14:05.919Z,99496.69
2022-09-27T18:16:37.220Z,99494.31
2022-09-27T18:19:07.509Z,99503.69
2022-09-27T18:21:37.069Z,99510.47
2022-09-27T18:24:08.829Z,99502.03
2022-09-27T18:26:41.179Z,99507.16
2022-09-27T18:29:18.621Z,99507.84
2022-09-27T18:31:49.395Z,99512.50
2022-09-27T18:34:18.984Z,99507.84
2022-09-27T18:36:56.869Z,99507.75
2022-09-27T18:39:25.520Z,99510.38
2022-09-27T18:41:56.741Z,99506.19
2022-09-27T18:44:25.779Z,99519.28
2022-09-27T18:46:58.384Z,99507.28
2022-09-27T18:49:33.040Z,99521.06
2022-09-27T18:52:13.739Z,99514.28
2022-09-27T18:54:42.409Z,99518.13
2022-09-27T18:57:12.539Z,99519.28
2022-09-27T18:59:44.069Z,99529.38
2022-09-27T19:02:12.695Z,99532.25
2022-09-27T19:04:41.750Z,99529.28
2022-09-27T19:07:10.349Z,99536.31
2022-09-27T19:09:39.100Z,99538.69
2022-09-27T19:12:10.683Z,99532.63
2022-09-27T19:14:44.471Z,99541.06
2022-09-27T19:17:13.019Z,99535.09
2022-09-27T19:19:41.630Z,99541.06
2022-09-27T19:22:10.802Z,99553.66
2022-09-27T19:24:39.379Z,99547.84
2022-09-27T19:27:07.919Z,99548.66
2022-09-27T19:29:37.140Z,99553.66
2022-09-27T19:32:08.299Z,99559.97
2022-09-27T19:34:38.500Z,99552.94
2022-09-27T19:37:07.650Z,99562.94
2022-09-27T19:39:36.731Z,99562.47
2022-09-27T19:42:05.531Z,99562.72
2022-09-27T19:44:34.461Z,99566.75
2022-09-27T19:47:03.126Z,99571.75
2022-09-27T19:49:33.429Z,99584.00
2022-09-27T19:52:05.099Z,99582.22
2022-09-27T19:54:38.720Z,99591.88
2022-09-27T19:57:11.062Z,99593.66
2022-09-27T19:59:42.570Z,99595.31
2022-09-27T20:02:13.105Z,99603.91
2022-09-27T20:04:43.589Z,99606.50
2022-09-27T20:07:12.702Z,99610.88
2022-09-27T20:09:57.009Z,99610.78
2022-09-27T20:12:31.119Z,99607.44
2022-09-27T20:15:00.519Z,99608.41
2022-09-27T20:17:36.650Z,99603.03
2022-09-27T20:20:15.770Z,99602.09
2022-09-27T20:22:46.390Z,99602.56
2022-09-27T20:25:23.180Z,99598.16
2022-09-27T20:27:51.779Z,99604.34
2022-09-27T20:30:20.439Z,99599.81
2022-09-27T20:33:09.540Z,99589.00
2022-09-27T20:35:39.763Z,99593.53
2022-09-27T20:38:08.265Z,99596.03
2022-09-27T20:40:38.831Z,99588.53
2022-09-27T20:43:07.519Z,99584.13
2022-09-27T20:45:36.081Z,99594.25
2022-09-27T20:48:04.939Z,99594.84
2022-09-27T20:50:33.989Z,99593.03
2022-09-27T20:53:03.983Z,99590.56
2022-09-27T20:55:36.373Z,99586.97
2022-09-27T20:58:06.694Z,99587.22
2022-09-27T21:00:39.230Z,99602.19
2022-09-27T21:03:20.849Z,99597.06
2022-09-27T21:05:57.460Z,99597.94
2022-09-27T21:08:36.194Z,99589.59
2022-09-27T21:11:11.259Z,99588.03
2022-09-27T21:13:44.432Z,99602.34
2022-09-27T21:16:17.938Z,99600.41
2022-09-27T21:18:46.950Z,99601.50
2022-09-27T21:21:16.113Z,99597.09
2022-09-27T21:23:55.430Z,99598.19
2022-09-27T21:26:25.270Z,99590.31
2022-09-27T21:28:55.711Z,99587.47
2022-09-27T21:31:26.342Z,99594.94
2022-09-27T21:34:02.620Z,99599.34
2022-09-27T21:36:34.932Z,99601.84
2022-09-27T21:39:05.839Z,99601.97
2022-09-27T21:41:34.373Z,99605.66
2022-09-27T21:44:05.539Z,99605.41
2022-09-27T21:46:34.460Z,99609.38
2022-09-27T21:49:03.645Z,99617.69
2022-09-27T21:51:36.665Z,99623.06
2022-09-27T21:54:09.001Z,99614.59
2022-09-27T21:56:41.929Z,99613.66
2022-09-27T21:59:16.923Z,99617.34
2022-09-27T22:01:47.283Z,99610.53
2022-09-27T22:04:18.120Z,99609.84
2022-09-27T22:06:46.690Z,99618.16
2022-09-27T22:09:23.941Z,99618.41
2022-09-27T22:11:53.113Z,99610.69
2022-09-27T22:14:21.700Z,99621.75
2022-09-27T22:16:51.119Z,99622.34
2022-09-27T22:19:21.590Z,99622.94
2022-09-27T22:21:50.233Z,99619.13
2022-09-27T22:24:29.259Z,99624.38
2022-09-27T22:26:58.292Z,99627.09
2022-09-27T22:29:26.940Z,99629.38
2022-09-27T22:32:00.899Z,99641.97
2022-09-27T22:34:31.435Z,99647.22
2022-09-27T22:37:02.843Z,99648.38
2022-09-27T22:39:35.630Z,99649.47
2022-09-27T22:42:04.549Z,99650.53
2022-09-27T22:44:34.559Z,99657.44
2022-09-27T22:47:06.121Z,99651.97
2022-09-27T22:49:34.840Z,99650.53
2022-09-27T22:52:04.199Z,99650.53
2022-09-27T22:54:34.480Z,99649.72
2022-09-27T22:57:03.290Z,99661.84
2022-09-27T22:59:34.910Z,99658.50
2022-09-27T23:02:11.970Z,99658.97
2022-09-27T23:04:41.079Z,99658.97
2022-09-27T23:07:15.649Z,99659.09
2022-09-27T23:09:45.740Z,99667.69
2022-09-27T23:12:18.949Z,99661.13
2022-09-27T23:14:47.630Z,99663.63
2022-09-27T23:17:18.030Z,99656.00
2022-09-27T23:19:46.859Z,99651.59
2022-09-27T23:22:15.459Z,99661.22
2022-09-27T23:24:45.459Z,99661.22
2022-09-27T23:27:33.229Z,99658.84
2022-09-27T23:30:01.791Z,99654.06
2022-09-27T23:32:31.889Z,99651.22
2022-09-27T23:35:07.073Z,99643.63
2022-09-27T23:37:35.641Z,99644.72
2022-09-27T23:40:09.770Z,99644.72
2022-09-27T23:42:38.433Z,99636.00
2022-09-27T23:45:07.969Z,99632.69
2022-09-27T23:47:40.769Z,99632.78
2022-09-27T23:50:10.870Z,99631.13
2022-09-27T23:52:41.212Z,99637.19
2022-09-27T23:55:13.119Z,99631.47
2022-09-27T23:57:44.919Z,99629.69
